Oregon, Ohio
Current Conditions -  °F | °C
As of 4:53 PM on Friday 28 Nov 2014 (Local Time) from KTDZ Reporting Station
Overcast Overcast  
Wind Chill: 19°   Ceiling: 2400
Heat Index: 28°   Visibility: 9mi
Dew Point: 21°   Wind: 10mph
Humidity: 75%   Direction: 190°S
Pressure: 30.2"   Gusts: NA
Location:  41.65°N, 83.42°W
Report Text: KTDZ 282153Z AUTO 19009KT 9SM FEW016 BKN024 OVC100 M02/M06 A3020 RMK AO2 SNE14 SLP236 P0000 T10221061 TSNO
Loading
Personal Weather Stations






























Interactive Weather Map New forecast layout! Learn more

10-Day Weather Forecast

Advertisements
Track Severe Weather on mobile